X  Sluiten METAR luchtvaart weer gegevens      KDNN Dalton Municipal Airport
Temperatuur
34°C Temperatuur
18°C Dauwpunt
39% Vochtigheid



Wind
0 M/S
0 MPH
0 KM/U
0 KTS



Kalm
N
Huidig weer

Grotendeels bewolkt Grotendeels bewolkt
Luchtdruk 1021.33 (hPa) - 30.16 (inHg)
Zicht 10 (mijl) - 16.1 (km)
Vliegveld
Vliegveld code KDNN

Locatie : Dalton Municipal Airport
Afstand: 34 (km)

Metar:
KDNN 131835Z AUTO 00000KT 10SM BKN120 34/18 A3016 RMK AO2 T03390178 $

Tijd: 07-13-2024 14:35 EDT